Time;durP1;ratioP1;P1;durP2;ratioP2;P2;SDS_P1;SDS_P2;PMS_P1;PMS_P2;Temp;Humidity;BMP_temperature;BMP_pressure;BME280_temperature;BME280_humidity;BME280_pressure;Samples;Min_cycle;Max_cycle;Signal;HPM_P1;HPM_P2
2023/08/09 01:28:29;;;;;;;1999.90;999.90;;;;;;;;;;5499503;22;20245;-73
2023/08/09 01:31:14;;;;;;;1999.90;999.90;;;;;;;;;;4966682;28;20344;-70
2023/08/09 01:33:59;;;;;;;1999.90;999.90;;;;;;;;;;4971780;28;20317;-70
2023/08/09 01:36:46;;;;;;;1999.90;999.90;;;;;;;;;;4969184;28;20211;-71
2023/08/09 01:39:33;;;;;;;1999.90;999.90;;;;;;;;;;4947742;28;20317;-73
2023/08/09 01:42:19;;;;;;;1999.90;999.90;;;;;;;;;;4947517;28;20368;-70
2023/08/09 01:45:06;;;;;;;1999.90;999.90;;;;;;;;;;4953116;28;20228;-71
2023/08/09 01:47:52;;;;;;;1999.90;999.90;;;;;;;;;;4952009;28;20229;-73
2023/08/09 01:50:37;;;;;;;1999.90;999.90;;;;;;;;;;4945909;28;20578;-74
2023/08/09 01:53:22;;;;;;;1999.90;999.90;;;;;;;;;;4948672;28;20205;-71
2023/08/09 01:56:07;;;;;;;1999.90;999.90;;;;;;;;;;4947121;28;20220;-74
2023/08/09 01:58:52;;;;;;;1999.90;999.90;;;;;;;;;;4947738;28;20748;-73
2023/08/09 02:01:39;;;;;;;1999.90;999.90;;;;;;;;;;4945637;28;20337;-74
2023/08/09 02:04:24;;;;;;;1999.90;999.90;;;;;;;;;;4950989;28;20230;-75
2023/08/09 02:07:09;;;;;;;1999.90;999.90;;;;;;;;;;4956199;28;20368;-72
2023/08/09 02:09:54;;;;;;;1999.90;999.90;;;;;;;;;;4955849;28;20209;-73
2023/08/09 02:12:39;;;;;;;1999.90;999.90;;;;;;;;;;4948745;28;20271;-73
2023/08/09 02:15:24;;;;;;;1999.90;999.90;;;;;;;;;;4955103;28;20332;-72
2023/08/09 02:18:10;;;;;;;1999.90;999.90;;;;;;;;;;4959805;28;20236;-74
2023/08/09 02:20:55;;;;;;;1999.90;999.90;;;;;;;;;;4969745;28;20216;-73
2023/08/09 02:23:40;;;;;;;1999.90;999.90;;;;;;;;;;4957827;28;20340;-73
2023/08/09 02:26:27;;;;;;;1999.90;999.90;;;;;;;;;;4966199;28;20629;-73
2023/08/09 02:29:11;;;;;;;1999.90;999.90;;;;;;;;;;4967617;28;20570;-72
2023/08/09 02:31:56;;;;;;;1999.90;999.90;;;;;;;;;;4975599;28;20212;-72
2023/08/09 02:34:42;;;;;;;1999.90;999.90;;;;;;;;;;4963500;28;20352;-73
2023/08/09 02:37:28;;;;;;;1999.90;999.90;;;;;;;;;;4974508;28;20232;-72
2023/08/09 02:40:13;;;;;;;1999.90;999.90;;;;;;;;;;4958517;28;20208;-73
2023/08/09 02:42:58;;;;;;;1999.90;999.90;;;;;;;;;;4975486;28;20208;-72
2023/08/09 02:45:43;;;;;;;1999.90;999.90;;;;;;;;;;4975490;28;20303;-73
2023/08/09 02:48:29;;;;;;;1999.90;999.90;;;;;;;;;;4969916;28;20368;-73
2023/08/09 02:51:15;;;;;;;1999.90;999.90;;;;;;;;;;4972328;28;20696;-73
2023/08/09 02:54:01;;;;;;;1999.90;999.90;;;;;;;;;;4961791;28;20252;-73
2023/08/09 02:56:46;;;;;;;1999.90;999.90;;;;;;;;;;4975202;28;20208;-73
2023/08/09 02:59:32;;;;;;;1999.90;999.90;;;;;;;;;;4962017;28;20212;-73
2023/08/09 03:02:17;;;;;;;1999.90;999.90;;;;;;;;;;4975127;28;20215;-73
2023/08/09 03:05:03;;;;;;;1999.90;999.90;;;;;;;;;;4963053;28;20223;-74
2023/08/09 03:07:51;;;;;;;1999.90;999.90;;;;;;;;;;4973776;28;20267;-72
2023/08/09 03:10:35;;;;;;;1999.90;999.90;;;;;;;;;;4974268;28;20283;-72
2023/08/09 03:13:20;;;;;;;1999.90;999.90;;;;;;;;;;4968326;28;20701;-73
2023/08/09 03:16:05;;;;;;;1999.90;999.90;;;;;;;;;;4969483;28;20203;-72
2023/08/09 03:18:50;;;;;;;1999.90;999.90;;;;;;;;;;4963729;28;20232;-72
2023/08/09 03:21:35;;;;;;;1999.90;999.90;;;;;;;;;;4974352;28;20263;-73
2023/08/09 03:24:21;;;;;;;1999.90;999.90;;;;;;;;;;4954871;28;20218;-72
2023/08/09 03:27:06;;;;;;;1999.90;999.90;;;;;;;;;;4974492;28;20709;-72
2023/08/09 03:29:51;;;;;;;1999.90;999.90;;;;;;;;;;4958808;28;20407;-72
2023/08/09 03:32:36;;;;;;;1999.90;999.90;;;;;;;;;;4970850;28;20328;-72
2023/08/09 03:35:21;;;;;;;1999.90;999.90;;;;;;;;;;4972046;28;20708;-72
2023/08/09 03:38:06;;;;;;;1999.90;999.90;;;;;;;;;;4965764;28;20224;-73
2023/08/09 03:40:52;;;;;;;1999.90;999.90;;;;;;;;;;4974420;28;20203;-73
2023/08/09 03:43:37;;;;;;;1999.90;999.90;;;;;;;;;;4963199;28;20223;-73
2023/08/09 03:46:22;;;;;;;1999.90;999.90;;;;;;;;;;4974173;28;20607;-72
2023/08/09 03:49:07;;;;;;;1999.90;999.90;;;;;;;;;;4962289;28;20231;-74
2023/08/09 03:51:52;;;;;;;1999.90;999.90;;;;;;;;;;4969861;28;20289;-71
2023/08/09 03:54:37;;;;;;;1999.90;999.90;;;;;;;;;;4973427;28;20212;-72
2023/08/09 03:57:23;;;;;;;1999.90;999.90;;;;;;;;;;4967538;28;20381;-72
2023/08/09 04:00:09;;;;;;;1999.90;999.90;;;;;;;;;;4969353;28;20211;-73
2023/08/09 04:02:54;;;;;;;1999.90;999.90;;;;;;;;;;4962659;28;20215;-72
2023/08/09 04:05:39;;;;;;;1999.90;999.90;;;;;;;;;;4973022;28;20216;-72
2023/08/09 04:08:26;;;;;;;1999.90;999.90;;;;;;;;;;4958044;28;20247;-72
2023/08/09 04:11:11;;;;;;;1999.90;999.90;;;;;;;;;;4973583;28;20427;-73
2023/08/09 04:13:57;;;;;;;1999.90;999.90;;;;;;;;;;4960831;28;20335;-75
2023/08/09 04:16:42;;;;;;;1999.90;999.90;;;;;;;;;;4969943;28;20204;-74
2023/08/09 04:19:27;;;;;;;1999.90;999.90;;;;;;;;;;4971542;28;20207;-74
2023/08/09 04:22:12;;;;;;;1999.90;999.90;;;;;;;;;;4961012;28;20260;-75
2023/08/09 04:24:57;;;;;;;1999.90;999.90;;;;;;;;;;4957001;28;20212;-71
2023/08/09 04:27:42;;;;;;;1999.90;999.90;;;;;;;;;;4951264;28;20627;-73
2023/08/09 04:30:28;;;;;;;1999.90;999.90;;;;;;;;;;4949828;28;20990;-73
2023/08/09 04:33:13;;;;;;;1999.90;999.90;;;;;;;;;;4946548;28;20212;-73
2023/08/09 04:35:58;;;;;;;1999.90;999.90;;;;;;;;;;4943793;28;20212;-75
2023/08/09 04:38:43;;;;;;;1999.90;999.90;;;;;;;;;;4953035;28;20337;-74
2023/08/09 04:41:28;;;;;;;1999.90;999.90;;;;;;;;;;4950965;28;20256;-71
2023/08/09 04:44:14;;;;;;;1999.90;999.90;;;;;;;;;;4952606;28;20217;-71
2023/08/09 04:47:00;;;;;;;1999.90;999.90;;;;;;;;;;4944368;28;20221;-74
2023/08/09 04:49:45;;;;;;;1999.90;999.90;;;;;;;;;;4956560;28;20216;-74
2023/08/09 04:52:30;;;;;;;1999.90;999.90;;;;;;;;;;4960770;28;20224;-75
2023/08/09 04:55:15;;;;;;;1999.90;999.90;;;;;;;;;;4966984;28;20216;-75
2023/08/09 04:58:00;;;;;;;1999.90;999.90;;;;;;;;;;4954370;28;20230;-73
2023/08/09 05:00:45;;;;;;;1999.90;999.90;;;;;;;;;;4949276;28;20231;-74
2023/08/09 05:03:31;;;;;;;1999.90;999.90;;;;;;;;;;4952622;28;20300;-74
2023/08/09 05:06:16;;;;;;;1999.90;999.90;;;;;;;;;;4949834;28;20372;-74
2023/08/09 05:09:01;;;;;;;1999.90;999.90;;;;;;;;;;4946881;28;20601;-74
2023/08/09 05:11:46;;;;;;;1999.90;999.90;;;;;;;;;;4952635;28;20268;-74
2023/08/09 05:14:31;;;;;;;1999.90;999.90;;;;;;;;;;4953514;28;20224;-74
2023/08/09 05:17:16;;;;;;;1999.90;999.90;;;;;;;;;;4946995;28;20269;-74
2023/08/09 05:20:03;;;;;;;1999.90;999.90;;;;;;;;;;4950025;28;20210;-74
2023/08/09 05:22:48;;;;;;;1999.90;999.90;;;;;;;;;;4952112;28;20220;-74
2023/08/09 05:25:33;;;;;;;1999.90;999.90;;;;;;;;;;4962076;28;20259;-74
2023/08/09 05:28:18;;;;;;;1999.90;999.90;;;;;;;;;;4964182;28;20606;-73
2023/08/09 05:31:03;;;;;;;1999.90;999.90;;;;;;;;;;4961393;28;21073;-75
2023/08/09 05:33:48;;;;;;;1999.90;999.90;;;;;;;;;;4971944;28;20224;-74
2023/08/09 05:36:34;;;;;;;1999.90;999.90;;;;;;;;;;4964726;28;20213;-74
2023/08/09 05:39:20;;;;;;;1999.90;999.90;;;;;;;;;;4972836;28;20350;-73
2023/08/09 05:42:05;;;;;;;1999.90;999.90;;;;;;;;;;4967428;28;20211;-73
2023/08/09 05:44:51;;;;;;;1999.90;999.90;;;;;;;;;;4969927;28;20340;-74
2023/08/09 05:47:36;;;;;;;1999.90;999.90;;;;;;;;;;4952128;28;20241;-74
2023/08/09 05:50:21;;;;;;;1999.90;999.90;;;;;;;;;;4953434;28;20220;-75
2023/08/09 05:53:09;;;;;;;1999.90;999.90;;;;;;;;;;4958571;28;20226;-72
2023/08/09 05:55:54;;;;;;;1999.90;999.90;;;;;;;;;;4946509;28;20717;-74
2023/08/09 05:58:39;;;;;;;1999.90;999.90;;;;;;;;;;4954933;28;20245;-75
2023/08/09 06:01:24;;;;;;;1999.90;999.90;;;;;;;;;;4953455;28;20232;-74
2023/08/09 06:04:09;;;;;;;1999.90;999.90;;;;;;;;;;4948209;28;20209;-75
2023/08/09 06:06:54;;;;;;;1999.90;999.90;;;;;;;;;;4953944;28;20233;-74
2023/08/09 06:09:40;;;;;;;1999.90;999.90;;;;;;;;;;4953882;28;20713;-74
2023/08/09 06:12:25;;;;;;;1999.90;999.90;;;;;;;;;;4955612;28;20200;-74
2023/08/09 06:15:11;;;;;;;1999.90;999.90;;;;;;;;;;4948980;28;20705;-75
2023/08/09 06:17:56;;;;;;;1999.90;999.90;;;;;;;;;;4958823;28;20227;-74
2023/08/09 06:20:41;;;;;;;1999.90;999.90;;;;;;;;;;4971494;28;20265;-75
2023/08/09 06:23:26;;;;;;;1999.90;999.90;;;;;;;;;;4962466;28;20295;-75
2023/08/09 06:26:12;;;;;;;1999.90;999.90;;;;;;;;;;4948102;28;20216;-75
2023/08/09 06:28:57;;;;;;;1999.90;999.90;;;;;;;;;;4947534;28;20239;-74
2023/08/09 06:31:42;;;;;;;1999.90;999.90;;;;;;;;;;4964731;28;20439;-75
2023/08/09 06:34:27;;;;;;;1999.90;999.90;;;;;;;;;;4967107;28;20211;-74
2023/08/09 06:37:12;;;;;;;1999.90;999.90;;;;;;;;;;4954406;28;20204;-74
2023/08/09 06:39:57;;;;;;;1999.90;999.90;;;;;;;;;;4963167;28;20208;-74
2023/08/09 06:42:44;;;;;;;1999.90;999.90;;;;;;;;;;4971140;28;20217;-73
2023/08/09 06:45:29;;;;;;;1999.90;999.90;;;;;;;;;;4966523;28;20208;-75
2023/08/09 06:48:14;;;;;;;1999.90;999.90;;;;;;;;;;4967862;28;20613;-75
2023/08/09 06:51:00;;;;;;;1999.90;999.90;;;;;;;;;;4965719;28;20215;-74
2023/08/09 06:53:45;;;;;;;1999.90;999.90;;;;;;;;;;4964747;28;20220;-75
2023/08/09 06:56:30;;;;;;;1999.90;999.90;;;;;;;;;;4955268;28;20780;-75
2023/08/09 06:59:16;;;;;;;1999.90;999.90;;;;;;;;;;4972358;28;20231;-73
2023/08/09 07:02:01;;;;;;;1999.90;999.90;;;;;;;;;;4958168;28;20215;-72
2023/08/09 07:04:46;;;;;;;1999.90;999.90;;;;;;;;;;4968882;28;20600;-74
2023/08/09 07:07:31;;;;;;;1999.90;999.90;;;;;;;;;;4974717;28;20236;-75
2023/08/09 07:10:16;;;;;;;1999.90;999.90;;;;;;;;;;4961087;28;20208;-74
2023/08/09 07:13:01;;;;;;;1999.90;999.90;;;;;;;;;;4954084;28;20452;-74
2023/08/09 07:15:47;;;;;;;1999.90;999.90;;;;;;;;;;4963057;28;20212;-74
2023/08/09 07:18:33;;;;;;;1999.90;999.90;;;;;;;;;;4955914;28;20353;-74
2023/08/09 07:21:17;;;;;;;1999.90;999.90;;;;;;;;;;4956507;28;20212;-74
2023/08/09 07:24:02;;;;;;;1999.90;999.90;;;;;;;;;;4971516;28;20211;-75
2023/08/09 07:26:47;;;;;;;1999.90;999.90;;;;;;;;;;4961530;28;20333;-74
2023/08/09 07:29:32;;;;;;;1999.90;999.90;;;;;;;;;;4962777;28;20220;-74
2023/08/09 07:32:18;;;;;;;1999.90;999.90;;;;;;;;;;4951037;28;20968;-74
2023/08/09 07:35:04;;;;;;;1999.90;999.90;;;;;;;;;;4947053;28;20663;-75
2023/08/09 07:37:49;;;;;;;1999.90;999.90;;;;;;;;;;4961280;28;20225;-75
2023/08/09 07:40:33;;;;;;;1999.90;999.90;;;;;;;;;;4951047;28;20258;-73
2023/08/09 07:43:18;;;;;;;1999.90;999.90;;;;;;;;;;4960027;28;20214;-74
2023/08/09 07:46:05;;;;;;;1999.90;999.90;;;;;;;;;;4962002;28;20216;-75
2023/08/09 07:48:53;;;;;;;1999.90;999.90;;;;;;;;;;4968135;28;20230;-74
2023/08/09 07:51:38;;;;;;;1999.90;999.90;;;;;;;;;;4967104;28;20766;-73
2023/08/09 07:54:23;;;;;;;1999.90;999.90;;;;;;;;;;4963124;28;20235;-73
2023/08/09 07:57:09;;;;;;;1999.90;999.90;;;;;;;;;;4958325;28;20636;-73
2023/08/09 07:59:54;;;;;;;1999.90;999.90;;;;;;;;;;4959818;28;20227;-73
2023/08/09 08:02:39;;;;;;;1999.90;999.90;;;;;;;;;;4951217;28;20580;-73
2023/08/09 08:05:26;;;;;;;1999.90;999.90;;;;;;;;;;4945844;28;20702;-73
2023/08/09 08:08:11;;;;;;;1999.90;999.90;;;;;;;;;;4947213;28;20352;-73
2023/08/09 08:10:56;;;;;;;1999.90;999.90;;;;;;;;;;4946824;28;20242;-73
2023/08/09 08:13:41;;;;;;;1999.90;999.90;;;;;;;;;;4952489;28;20917;-74
2023/08/09 08:16:25;;;;;;;1999.90;999.90;;;;;;;;;;4948953;28;20586;-73
2023/08/09 08:19:11;;;;;;;1999.90;999.90;;;;;;;;;;4956424;28;20416;-74
2023/08/09 08:21:58;;;;;;;1999.90;999.90;;;;;;;;;;4958964;28;20212;-73
2023/08/09 08:24:43;;;;;;;1999.90;999.90;;;;;;;;;;4961387;28;20342;-74
2023/08/09 08:27:28;;;;;;;1999.90;999.90;;;;;;;;;;4969532;28;20247;-74
2023/08/09 08:30:13;;;;;;;1999.90;999.90;;;;;;;;;;4964799;28;20506;-74
2023/08/09 08:32:58;;;;;;;1999.90;999.90;;;;;;;;;;4968727;28;20703;-73
2023/08/09 08:35:48;;;;;;;1999.90;999.90;;;;;;;;;;4970022;28;20212;-74
2023/08/09 08:38:34;;;;;;;1999.90;999.90;;;;;;;;;;4942620;28;20723;-74
2023/08/09 08:41:19;;;;;;;1999.90;999.90;;;;;;;;;;4959918;28;20204;-74
2023/08/09 08:44:05;;;;;;;1999.90;999.90;;;;;;;;;;4957855;28;20220;-74
2023/08/09 08:46:51;;;;;;;1999.90;999.90;;;;;;;;;;4970516;28;20299;-74
2023/08/09 08:49:36;;;;;;;1999.90;999.90;;;;;;;;;;4959943;28;20260;-73
2023/08/09 08:52:22;;;;;;;1999.90;999.90;;;;;;;;;;4969807;28;20598;-74
2023/08/09 08:55:10;;;;;;;1999.90;999.90;;;;;;;;;;4968044;28;20231;-74
2023/08/09 08:57:55;;;;;;;1999.90;999.90;;;;;;;;;;4964684;28;20292;-74
2023/08/09 09:00:39;;;;;;;1999.90;999.90;;;;;;;;;;4968938;28;20208;-73
2023/08/09 09:03:24;;;;;;;1999.90;999.90;;;;;;;;;;4951494;28;20217;-74
2023/08/09 09:06:10;;;;;;;1999.90;999.90;;;;;;;;;;4952757;28;20697;-72
2023/08/09 09:08:56;;;;;;;1999.90;999.90;;;;;;;;;;4944284;28;20790;-74
2023/08/09 09:11:44;;;;;;;1999.90;999.90;;;;;;;;;;4949823;28;20424;-74
2023/08/09 09:14:29;;;;;;;1999.90;999.90;;;;;;;;;;4946665;28;20336;-73
2023/08/09 09:17:13;;;;;;;1999.90;999.90;;;;;;;;;;4949850;28;20212;-73
2023/08/09 09:19:59;;;;;;;1999.90;999.90;;;;;;;;;;4966917;28;20253;-72
2023/08/09 09:22:44;;;;;;;1999.90;999.90;;;;;;;;;;4966704;28;20709;-74
2023/08/09 09:25:29;;;;;;;1999.90;999.90;;;;;;;;;;4965657;28;20207;-72
2023/08/09 09:28:18;;;;;;;1999.90;999.90;;;;;;;;;;4952367;28;20362;-73
2023/08/09 09:31:03;;;;;;;1999.90;999.90;;;;;;;;;;4964456;28;20389;-72
2023/08/09 09:33:49;;;;;;;1999.90;999.90;;;;;;;;;;4951516;28;20212;-73
2023/08/09 09:36:38;;;;;;;1999.90;999.90;;;;;;;;;;4955273;28;20257;-74
2023/08/09 09:39:23;;;;;;;1999.90;999.90;;;;;;;;;;4954780;28;20239;-73
2023/08/09 09:42:11;;;;;;;1999.90;999.90;;;;;;;;;;4965520;28;20216;-73
2023/08/09 09:45:04;;;;;;;1999.90;999.90;;;;;;;;;;4964025;28;20216;-73
2023/08/09 09:47:49;;;;;;;1999.90;999.90;;;;;;;;;;4962010;28;20232;-73
2023/08/09 09:50:34;;;;;;;1999.90;999.90;;;;;;;;;;4976561;28;20204;-73
2023/08/09 09:53:20;;;;;;;1999.90;999.90;;;;;;;;;;4968700;28;20212;-73
2023/08/09 09:56:05;;;;;;;1999.90;999.90;;;;;;;;;;4974146;28;20283;-73
2023/08/09 09:58:50;;;;;;;1999.90;999.90;;;;;;;;;;4950021;28;20597;-73
2023/08/09 10:01:39;;;;;;;1999.90;999.90;;;;;;;;;;4951066;28;20717;-73
2023/08/09 10:04:24;;;;;;;1999.90;999.90;;;;;;;;;;4968197;28;20201;-73
2023/08/09 10:07:10;;;;;;;1999.90;999.90;;;;;;;;;;4959381;28;20213;-73
2023/08/09 10:09:55;;;;;;;1999.90;999.90;;;;;;;;;;4956614;28;20294;-73
2023/08/09 10:12:41;;;;;;;1999.90;999.90;;;;;;;;;;4955495;28;20424;-72
2023/08/09 10:15:30;;;;;;;1999.90;999.90;;;;;;;;;;4962343;28;20216;-72
2023/08/09 10:18:18;;;;;;;1999.90;999.90;;;;;;;;;;4966655;28;20315;-72
2023/08/09 10:21:04;;;;;;;1999.90;999.90;;;;;;;;;;4952536;28;20265;-73
2023/08/09 10:23:56;;;;;;;1999.90;999.90;;;;;;;;;;4948412;28;20684;-72
2023/08/09 10:26:44;;;;;;;1999.90;999.90;;;;;;;;;;4963825;28;20213;-71
2023/08/09 10:29:28;;;;;;;1999.90;999.90;;;;;;;;;;4973638;28;20294;-72
2023/08/09 10:32:13;;;;;;;1999.90;999.90;;;;;;;;;;4971360;28;20446;-72
2023/08/09 10:34:59;;;;;;;1999.90;999.90;;;;;;;;;;4972526;28;20216;-72
2023/08/09 10:37:44;;;;;;;1999.90;999.90;;;;;;;;;;4967338;28;20299;-71
2023/08/09 10:40:35;;;;;;;1999.90;999.90;;;;;;;;;;4971446;28;20347;-72
2023/08/09 10:43:21;;;;;;;1999.90;999.90;;;;;;;;;;4969243;28;20228;-70
2023/08/09 10:46:19;;;;;;;1999.90;999.90;;;;;;;;;;4972179;28;20263;-72
2023/08/09 10:49:04;;;;;;;1999.90;999.90;;;;;;;;;;4973377;28;20263;-71
2023/08/09 10:51:51;;;;;;;1999.90;999.90;;;;;;;;;;4972930;28;20224;-70
2023/08/09 10:54:36;;;;;;;1999.90;999.90;;;;;;;;;;4969099;28;20264;-71
2023/08/09 10:57:20;;;;;;;1999.90;999.90;;;;;;;;;;4964302;28;20231;-71
2023/08/09 11:00:07;;;;;;;1999.90;999.90;;;;;;;;;;4955873;29;20209;-71
2023/08/09 11:02:53;;;;;;;1999.90;999.90;;;;;;;;;;4954479;28;20215;-70
2023/08/09 11:05:38;;;;;;;1999.90;999.90;;;;;;;;;;4949838;28;20220;-70
2023/08/09 11:08:30;;;;;;;1999.90;999.90;;;;;;;;;;4958839;28;20224;-71
2023/08/09 11:11:15;;;;;;;1999.90;999.90;;;;;;;;;;4963888;28;20206;-71
2023/08/09 11:14:00;;;;;;;1999.90;999.90;;;;;;;;;;4974751;28;20325;-70
2023/08/09 11:16:45;;;;;;;1999.90;999.90;;;;;;;;;;4964182;28;20578;-70
2023/08/09 11:19:31;;;;;;;1999.90;999.90;;;;;;;;;;4951793;28;20210;-70
2023/08/09 11:22:16;;;;;;;1999.90;999.90;;;;;;;;;;4955227;28;20245;-71
2023/08/09 11:25:03;;;;;;;1999.90;999.90;;;;;;;;;;4955438;28;20686;-71
2023/08/09 11:27:50;;;;;;;1999.90;999.90;;;;;;;;;;4974412;28;20252;-71
2023/08/09 11:30:35;;;;;;;1999.90;999.90;;;;;;;;;;4955461;28;20455;-70
2023/08/09 11:33:20;;;;;;;1999.90;999.90;;;;;;;;;;4955916;28;20706;-72
2023/08/09 11:36:08;;;;;;;1999.90;999.90;;;;;;;;;;4954167;28;20214;-71
2023/08/09 11:38:53;;;;;;;1999.90;999.90;;;;;;;;;;4952276;28;20283;-71
2023/08/09 11:41:43;;;;;;;1999.90;999.90;;;;;;;;;;4952908;28;20220;-72
2023/08/09 11:44:30;;;;;;;1999.90;999.90;;;;;;;;;;4954217;28;20215;-70
2023/08/09 11:47:15;;;;;;;1999.90;999.90;;;;;;;;;;4974185;28;20331;-70
2023/08/09 11:50:05;;;;;;;1999.90;999.90;;;;;;;;;;4960988;28;20641;-71
2023/08/09 11:52:56;;;;;;;1999.90;999.90;;;;;;;;;;4953719;28;20729;-71
2023/08/09 11:55:41;;;;;;;1999.90;999.90;;;;;;;;;;4956976;28;20354;-71
2023/08/09 11:58:27;;;;;;;1999.90;999.90;;;;;;;;;;4973910;28;20694;-71
2023/08/09 12:01:13;;;;;;;1999.90;999.90;;;;;;;;;;4973888;28;20205;-72
2023/08/09 12:04:00;;;;;;;1999.90;999.90;;;;;;;;;;4974024;28;20324;-71
2023/08/09 12:06:49;;;;;;;1999.90;999.90;;;;;;;;;;4945263;28;20217;-72
2023/08/09 12:09:40;;;;;;;1999.90;999.90;;;;;;;;;;4958348;28;20228;-71
2023/08/09 12:12:35;;;;;;;1999.90;999.90;;;;;;;;;;4965441;28;20212;-72
2023/08/09 12:15:22;;;;;;;1999.90;999.90;;;;;;;;;;4952112;28;20310;-70
2023/08/09 12:18:07;;;;;;;1999.90;999.90;;;;;;;;;;4962276;28;20788;-70
2023/08/09 12:20:51;;;;;;;1999.90;999.90;;;;;;;;;;4968528;28;20248;-70
2023/08/09 12:23:37;;;;;;;1999.90;999.90;;;;;;;;;;4973570;28;20260;-71
2023/08/09 12:26:22;;;;;;;1999.90;999.90;;;;;;;;;;4973917;28;20465;-70
2023/08/09 12:29:07;;;;;;;1999.90;999.90;;;;;;;;;;4973336;28;20239;-70
2023/08/09 12:31:53;;;;;;;1999.90;999.90;;;;;;;;;;4958048;28;20963;-70
2023/08/09 12:34:38;;;;;;;1999.90;999.90;;;;;;;;;;4954450;29;20211;-69
2023/08/09 12:37:25;;;;;;;1999.90;999.90;;;;;;;;;;4953019;28;20241;-70
2023/08/09 12:40:11;;;;;;;1999.90;999.90;;;;;;;;;;4953866;28;20212;-70
2023/08/09 12:42:56;;;;;;;1999.90;999.90;;;;;;;;;;4957653;28;20579;-70
2023/08/09 12:45:41;;;;;;;1999.90;999.90;;;;;;;;;;4947085;28;20704;-70
2023/08/09 12:48:27;;;;;;;1999.90;999.90;;;;;;;;;;4955879;28;20766;-70
2023/08/09 12:51:12;;;;;;;1999.90;999.90;;;;;;;;;;4952336;28;20229;-70
2023/08/09 12:53:57;;;;;;;1999.90;999.90;;;;;;;;;;4958361;28;20216;-70
2023/08/09 12:56:42;;;;;;;1999.90;999.90;;;;;;;;;;4973290;28;20267;-70
2023/08/09 12:59:27;;;;;;;1999.90;999.90;;;;;;;;;;4963660;28;20216;-72
2023/08/09 13:02:12;;;;;;;1999.90;999.90;;;;;;;;;;4957126;28;20361;-70
2023/08/09 13:04:59;;;;;;;1999.90;999.90;;;;;;;;;;4952870;28;20215;-70
2023/08/09 13:07:45;;;;;;;1999.90;999.90;;;;;;;;;;4957632;28;20755;-70
2023/08/09 13:10:29;;;;;;;1999.90;999.90;;;;;;;;;;4973099;28;20228;-68
2023/08/09 13:13:14;;;;;;;1999.90;999.90;;;;;;;;;;4972898;28;20212;-70
2023/08/09 13:15:59;;;;;;;1999.90;999.90;;;;;;;;;;4971259;28;20628;-72
2023/08/09 13:18:44;;;;;;;1999.90;999.90;;;;;;;;;;4946028;29;20232;-70
2023/08/09 13:21:30;;;;;;;1999.90;999.90;;;;;;;;;;4960645;28;20224;-69
2023/08/09 13:24:15;;;;;;;1999.90;999.90;;;;;;;;;;4971901;28;20211;-69
2023/08/09 13:27:00;;;;;;;1999.90;999.90;;;;;;;;;;4950698;28;20228;-70
2023/08/09 13:29:45;;;;;;;1999.90;999.90;;;;;;;;;;4951535;28;20949;-72
2023/08/09 13:32:30;;;;;;;1999.90;999.90;;;;;;;;;;4952275;28;20212;-70
2023/08/09 13:35:15;;;;;;;1999.90;999.90;;;;;;;;;;4953411;28;20216;-73
2023/08/09 13:38:03;;;;;;;1999.90;999.90;;;;;;;;;;4953331;28;20292;-72
2023/08/09 13:40:48;;;;;;;1999.90;999.90;;;;;;;;;;4953069;28;20204;-72
2023/08/09 13:43:34;;;;;;;1999.90;999.90;;;;;;;;;;4956379;28;20235;-72
2023/08/09 13:46:19;;;;;;;1999.90;999.90;;;;;;;;;;4965740;28;20232;-72
2023/08/09 13:49:04;;;;;;;1999.90;999.90;;;;;;;;;;4950387;28;20237;-72
2023/08/09 13:51:49;;;;;;;1999.90;999.90;;;;;;;;;;4966267;28;20209;-71
2023/08/09 13:54:35;;;;;;;1999.90;999.90;;;;;;;;;;4951067;28;20595;-72
2023/08/09 13:57:21;;;;;;;1999.90;999.90;;;;;;;;;;4972415;28;20220;-71
2023/08/09 14:00:08;;;;;;;1999.90;999.90;;;;;;;;;;4969514;28;20358;-72
2023/08/09 14:02:53;;;;;;;1999.90;999.90;;;;;;;;;;4956584;28;20216;-71
2023/08/09 14:05:38;;;;;;;1999.90;999.90;;;;;;;;;;4965459;28;20232;-72
2023/08/09 14:08:23;;;;;;;1999.90;999.90;;;;;;;;;;4954035;28;20232;-72
2023/08/09 14:11:09;;;;;;;1999.90;999.90;;;;;;;;;;4953408;28;20432;-72
2023/08/09 14:13:54;;;;;;;1999.90;999.90;;;;;;;;;;4952181;28;20822;-73
2023/08/09 14:16:39;;;;;;;1999.90;999.90;;;;;;;;;;4953771;29;20696;-72
2023/08/09 14:19:24;;;;;;;1999.90;999.90;;;;;;;;;;4952111;28;20237;-73
2023/08/09 14:22:09;;;;;;;1999.90;999.90;;;;;;;;;;4953427;28;20598;-73
2023/08/09 14:24:54;;;;;;;1999.90;999.90;;;;;;;;;;4956660;29;20228;-73
2023/08/09 14:27:40;;;;;;;1999.90;999.90;;;;;;;;;;4956480;28;20236;-72
2023/08/09 14:30:25;;;;;;;1999.90;999.90;;;;;;;;;;4954871;29;21093;-73
2023/08/09 14:33:12;;;;;;;1999.90;999.90;;;;;;;;;;4956457;29;20317;-72
2023/08/09 14:35:56;;;;;;;1999.90;999.90;;;;;;;;;;4956556;29;20220;-73
2023/08/09 14:38:41;;;;;;;1999.90;999.90;;;;;;;;;;4956314;28;20225;-72
2023/08/09 14:41:26;;;;;;;1999.90;999.90;;;;;;;;;;4956306;29;20296;-70
2023/08/09 14:44:13;;;;;;;1999.90;999.90;;;;;;;;;;4956139;29;20220;-70
2023/08/09 14:46:57;;;;;;;1999.90;999.90;;;;;;;;;;4956260;29;20205;-73
2023/08/09 14:49:42;;;;;;;1999.90;999.90;;;;;;;;;;4956257;29;20364;-70
2023/08/09 14:52:28;;;;;;;1999.90;999.90;;;;;;;;;;4955937;29;20300;-70
2023/08/09 14:55:13;;;;;;;1999.90;999.90;;;;;;;;;;4956138;29;20205;-73
2023/08/09 14:57:59;;;;;;;1999.90;999.90;;;;;;;;;;4956235;28;20271;-70
2023/08/09 15:00:47;;;;;;;1999.90;999.90;;;;;;;;;;4955928;29;20352;-70
2023/08/09 15:03:32;;;;;;;1999.90;999.90;;;;;;;;;;4955800;29;20208;-70
2023/08/09 15:06:16;;;;;;;1999.90;999.90;;;;;;;;;;4956122;29;20212;-71
2023/08/09 15:09:02;;;;;;;1999.90;999.90;;;;;;;;;;4954981;28;20436;-70
2023/08/09 15:11:47;;;;;;;1999.90;999.90;;;;;;;;;;4955004;28;20219;-70
2023/08/09 15:14:32;;;;;;;1999.90;999.90;;;;;;;;;;4955723;29;20228;-70
2023/08/09 15:17:18;;;;;;;1999.90;999.90;;;;;;;;;;4955678;28;20212;-70
2023/08/09 15:20:03;;;;;;;1999.90;999.90;;;;;;;;;;4955639;29;20288;-70
2023/08/09 15:22:48;;;;;;;1999.90;999.90;;;;;;;;;;4955349;29;20284;-72
2023/08/09 15:25:33;;;;;;;1999.90;999.90;;;;;;;;;;4955708;29;20208;-71
2023/08/09 15:28:18;;;;;;;1999.90;999.90;;;;;;;;;;4954914;28;20482;-73
2023/08/09 15:31:03;;;;;;;1999.90;999.90;;;;;;;;;;4955150;29;20745;-72
2023/08/09 15:33:49;;;;;;;1999.90;999.90;;;;;;;;;;4955653;29;20749;-72
2023/08/09 15:36:35;;;;;;;1999.90;999.90;;;;;;;;;;4955408;29;20209;-71
2023/08/09 15:39:19;;;;;;;1999.90;999.90;;;;;;;;;;4955143;28;20280;-72
2023/08/09 15:42:05;;;;;;;1999.90;999.90;;;;;;;;;;4955182;29;20340;-70
2023/08/09 15:44:49;;;;;;;1999.90;999.90;;;;;;;;;;4955283;29;20264;-72
2023/08/09 15:47:34;;;;;;;1999.90;999.90;;;;;;;;;;4955695;28;20600;-70
2023/08/09 15:50:21;;;;;;;1999.90;999.90;;;;;;;;;;4956884;29;20236;-73
2023/08/09 15:53:06;;;;;;;1999.90;999.90;;;;;;;;;;4955506;29;20228;-70
2023/08/09 15:55:52;;;;;;;1999.90;999.90;;;;;;;;;;4955033;29;20717;-70
2023/08/09 15:58:37;;;;;;;1999.90;999.90;;;;;;;;;;4949930;28;20240;-71
2023/08/09 16:01:23;;;;;;;1999.90;999.90;;;;;;;;;;4951239;29;20211;-71
2023/08/09 16:04:08;;;;;;;1999.90;999.90;;;;;;;;;;4954544;29;20690;-70
2023/08/09 16:06:55;;;;;;;1999.90;999.90;;;;;;;;;;4956309;29;20502;-70
2023/08/09 16:09:40;;;;;;;1999.90;999.90;;;;;;;;;;4956240;29;20708;-71
2023/08/09 16:12:25;;;;;;;1999.90;999.90;;;;;;;;;;4956608;29;20212;-71
2023/08/09 16:15:11;;;;;;;1999.90;999.90;;;;;;;;;;4949942;28;20757;-71
2023/08/09 16:17:55;;;;;;;1999.90;999.90;;;;;;;;;;4937697;29;20309;-70
2023/08/09 16:20:40;;;;;;;1999.90;999.90;;;;;;;;;;4954538;29;20255;-71
2023/08/09 16:23:26;;;;;;;1999.90;999.90;;;;;;;;;;4943988;29;20228;-71
2023/08/09 16:26:11;;;;;;;1999.90;999.90;;;;;;;;;;4935217;29;20209;-70
2023/08/09 16:28:56;;;;;;;1999.90;999.90;;;;;;;;;;4935110;29;20237;-71
2023/08/09 16:31:41;;;;;;;1999.90;999.90;;;;;;;;;;4943690;28;20302;-72
2023/08/09 16:34:26;;;;;;;1999.90;999.90;;;;;;;;;;4952590;28;20363;-72
2023/08/09 16:37:11;;;;;;;1999.90;999.90;;;;;;;;;;4945619;28;20208;-71
2023/08/09 16:39:58;;;;;;;1999.90;999.90;;;;;;;;;;4952903;28;20693;-70
2023/08/09 16:42:44;;;;;;;1999.90;999.90;;;;;;;;;;4946167;28;20217;-70
2023/08/09 16:45:29;;;;;;;1999.90;999.90;;;;;;;;;;4952136;28;20240;-71
2023/08/09 16:48:14;;;;;;;1999.90;999.90;;;;;;;;;;4948110;28;20595;-72
2023/08/09 16:50:58;;;;;;;1999.90;999.90;;;;;;;;;;4956616;28;20227;-72